createdAt,value
2022-09-17T00:16:48.668Z,95.4
2022-09-17T00:35:40.386Z,95.7
2022-09-17T00:57:24.420Z,95.8
2022-09-17T01:16:16.659Z,95.1
2022-09-17T01:56:38.254Z,93.5
2022-09-17T02:16:26.219Z,93.1
2022-09-17T02:37:07.232Z,93.2
2022-09-17T02:56:30.516Z,93
2022-09-17T03:16:32.303Z,96.7
2022-09-17T03:35:59.683Z,97.8
2022-09-17T03:56:54.505Z,98.5
2022-09-17T04:16:32.308Z,99
2022-09-17T04:36:50.276Z,99.3
2022-09-17T04:56:47.142Z,99.6
2022-09-17T05:16:36.711Z,99.8
2022-09-17T05:37:06.135Z,99.9
2022-09-17T05:57:26.051Z,100
2022-09-17T06:15:31.402Z,100
2022-09-17T06:36:19.167Z,100
2022-09-17T06:56:36.788Z,100
2022-09-17T07:16:33.236Z,100
2022-09-17T07:36:04.116Z,100
2022-09-17T07:56:05.814Z,99.1
2022-09-17T08:16:14.778Z,98.5
2022-09-17T08:36:38.215Z,97.2
2022-09-17T08:55:57.388Z,96.7
2022-09-17T09:16:38.702Z,93.9
2022-09-17T09:36:02.424Z,87.3
2022-09-17T09:55:57.483Z,83
2022-09-17T10:17:04.338Z,79.6
2022-09-17T10:35:39.360Z,72.6
2022-09-17T10:56:29.842Z,69.6
2022-09-17T11:16:45.270Z,60.5
2022-09-17T11:35:46.820Z,64.7
2022-09-17T11:56:40.307Z,89
2022-09-17T12:16:53.944Z,85.6
2022-09-17T12:36:03.379Z,82.4
2022-09-17T12:56:44.096Z,70.9
2022-09-17T13:16:32.524Z,67.1
2022-09-17T13:36:08.918Z,92.8
2022-09-17T13:56:43.985Z,92.7
2022-09-17T14:16:15.474Z,89.1
2022-09-17T14:36:17.080Z,82
2022-09-17T14:56:26.206Z,72.7
2022-09-17T15:16:20.556Z,64.1
2022-09-17T15:36:13.734Z,60.8
2022-09-17T15:56:13.674Z,70.6
2022-09-17T16:17:07.852Z,72.1
2022-09-17T16:36:05.640Z,75
2022-09-17T16:55:31.890Z,77.6
2022-09-17T17:16:47.532Z,79.6
2022-09-17T17:36:16.449Z,80.5
2022-09-17T17:57:07.086Z,81.1
2022-09-17T18:16:44.955Z,80.8
2022-09-17T18:35:51.016Z,82.1
2022-09-17T18:56:08.636Z,83.8
2022-09-17T19:16:14.212Z,85.4
2022-09-17T19:36:06.377Z,85.4
2022-09-17T19:55:34.961Z,85.7
2022-09-17T20:16:17.317Z,84.5
2022-09-17T20:35:41.913Z,84.6
2022-09-17T20:56:59.415Z,84.8
2022-09-17T21:15:43.800Z,84.7
2022-09-17T21:36:14.057Z,85.6
2022-09-17T21:56:43.497Z,86
2022-09-17T22:15:35.814Z,86.2
2022-09-17T22:36:14.338Z,86.3
2022-09-17T22:56:07.986Z,86.6
2022-09-17T23:16:32.308Z,86.5
2022-09-17T23:36:22.503Z,86.2
2022-09-17T23:57:13.771Z,86.5
